Time;durP1;ratioP1;P1;durP2;ratioP2;P2;SDS_P1;SDS_P2;PMS_P1;PMS_P2;Temp;Humidity;BMP_temperature;BMP_pressure;BME280_temperature;BME280_humidity;BME280_pressure;Samples;Min_cycle;Max_cycle;Signal;HPM_P1;HPM_P2
2021/07/07 00:00:59;;;;;;;4.40;4.00;;;17.60;99.90;;;;;;5057157;28;20192;-61
2021/07/07 00:03:28;;;;;;;4.73;4.33;;;17.70;99.90;;;;;;5058537;28;20655;-61
2021/07/07 00:05:53;;;;;;;5.07;4.57;;;17.80;99.90;;;;;;5060498;28;20231;-61
2021/07/07 00:08:22;;;;;;;5.07;3.57;;;17.80;99.90;;;;;;5059888;28;20201;-60
2021/07/07 00:10:48;;;;;;;3.70;2.95;;;17.90;99.90;;;;;;5055572;28;20246;-59
2021/07/07 00:13:14;;;;;;;3.13;2.85;;;17.90;99.90;;;;;;5065350;28;20181;-58
2021/07/07 00:15:40;;;;;;;4.03;3.10;;;17.90;99.90;;;;;;5059704;28;20717;-60
2021/07/07 00:18:08;;;;;;;3.17;2.87;;;17.80;99.90;;;;;;5055740;28;20586;-58
2021/07/07 00:20:53;;;;;;;4.88;3.20;;;17.70;99.90;;;;;;5062528;28;20795;-60
2021/07/07 00:23:19;;;;;;;3.53;3.22;;;17.40;99.90;;;;;;5061113;28;20652;-59
2021/07/07 00:25:44;;;;;;;2.97;2.67;;;17.80;99.90;;;;;;5060367;28;20188;-58
2021/07/07 00:28:10;;;;;;;4.00;3.37;;;17.70;99.90;;;;;;5060062;28;20680;-58
2021/07/07 00:30:35;;;;;;;2.83;2.63;;;17.80;99.90;;;;;;5060314;28;20694;-59
2021/07/07 00:33:01;;;;;;;3.77;3.20;;;17.40;99.90;;;;;;5062808;28;20692;-60
2021/07/07 00:35:30;;;;;;;3.10;2.80;;;17.50;99.90;;;;;;5053950;28;20227;-60
2021/07/07 00:37:56;;;;;;;2.35;2.15;;;17.60;99.90;;;;;;5055053;28;20205;-58
2021/07/07 00:40:22;;;;;;;2.70;2.22;;;17.90;99.90;;;;;;5056325;28;20186;-60
2021/07/07 00:42:49;;;;;;;1.85;1.75;;;17.70;99.90;;;;;;5065477;28;20207;-60
2021/07/07 00:45:15;;;;;;;2.13;1.92;;;17.80;99.90;;;;;;5060537;28;20185;-64
2021/07/07 00:47:42;;;;;;;1.90;1.80;;;17.80;99.90;;;;;;5064973;28;20254;-61
2021/07/07 00:50:09;;;;;;;2.50;2.30;;;17.60;99.90;;;;;;5067659;28;20204;-61
2021/07/07 00:52:34;;;;;;;3.10;2.80;;;17.50;99.90;;;;;;5063642;28;20184;-60
2021/07/07 00:55:08;;;;;;;2.73;2.53;;;17.70;99.90;;;;;;5068842;28;20658;-61
2021/07/07 00:57:35;;;;;;;3.10;2.80;;;17.80;99.90;;;;;;5065903;28;20296;-59
2021/07/07 01:00:06;;;;;;;2.63;2.42;;;17.80;99.90;;;;;;5064036;28;20253;-60
2021/07/07 01:02:35;;;;;;;2.40;2.20;;;18.10;99.90;;;;;;5070141;28;20179;-59
2021/07/07 01:05:00;;;;;;;2.47;2.20;;;17.70;99.90;;;;;;5068276;28;20184;-59
2021/07/07 01:07:26;;;;;;;4.30;2.20;;;17.70;99.90;;;;;;5065453;28;20208;-58
2021/07/07 01:09:52;;;;;;;3.40;2.33;;;17.70;99.90;;;;;;5065894;28;20231;-60
2021/07/07 01:12:17;;;;;;;2.40;2.20;;;17.50;99.90;;;;;;5066904;28;20209;-58
2021/07/07 01:14:43;;;;;;;2.50;2.30;;;17.60;99.90;;;;;;5062469;28;20301;-58
2021/07/07 01:17:09;;;;;;;2.60;2.40;;;17.60;99.90;;;;;;5071184;28;20209;-60
2021/07/07 01:19:34;;;;;;;3.00;2.53;;;17.50;99.90;;;;;;5065586;28;20571;-62
2021/07/07 01:22:00;;;;;;;3.13;2.63;;;17.50;99.90;;;;;;5063108;28;20229;-59
2021/07/07 01:24:26;;;;;;;2.67;2.47;;;17.40;99.90;;;;;;5065400;28;20177;-59
2021/07/07 01:26:51;;;;;;;5.30;2.57;;;17.20;99.90;;;;;;5067718;28;20545;-60
2021/07/07 01:29:17;;;;;;;3.47;3.20;;;17.40;99.90;;;;;;5059892;28;20229;-60
2021/07/07 01:31:43;;;;;;;3.50;2.90;;;17.40;99.90;;;;;;5064249;28;20276;-59
2021/07/07 01:34:10;;;;;;;4.13;3.00;;;17.50;99.90;;;;;;5060930;28;20197;-60
2021/07/07 01:36:36;;;;;;;3.75;3.45;;;17.20;99.90;;;;;;5063193;28;20181;-60
2021/07/07 01:39:05;;;;;;;3.70;3.38;;;17.40;99.90;;;;;;5067088;28;20228;-61
2021/07/07 01:41:31;;;;;;;5.90;5.13;;;17.50;99.90;;;;;;5068763;28;20264;-64
2021/07/07 01:43:56;;;;;;;5.65;3.80;;;17.60;99.90;;;;;;5060892;28;20178;-63
2021/07/07 01:46:22;;;;;;;4.20;3.27;;;17.40;99.90;;;;;;5070338;28;20203;-59
2021/07/07 01:48:48;;;;;;;4.20;3.80;;;17.50;99.90;;;;;;5066896;28;20636;-60
2021/07/07 01:51:13;;;;;;;4.47;4.07;;;17.30;99.90;;;;;;5069451;28;20192;-60
2021/07/07 01:53:39;;;;;;;5.83;4.77;;;17.30;99.90;;;;;;5062985;28;20193;-59
2021/07/07 01:56:04;;;;;;;3.83;3.50;;;17.50;99.90;;;;;;5064822;28;20650;-58
2021/07/07 01:58:31;;;;;;;4.43;4.03;;;17.60;99.90;;;;;;5063730;28;20213;-59
2021/07/07 02:00:57;;;;;;;7.60;4.88;;;17.60;99.90;;;;;;5067103;28;20260;-58
2021/07/07 02:03:22;;;;;;;13.30;9.20;;;17.70;99.90;;;;;;5070692;28;20279;-60
2021/07/07 02:05:48;;;;;;;10.73;7.83;;;17.70;99.90;;;;;;5062823;28;20565;-58
2021/07/07 02:08:14;;;;;;;5.10;4.60;;;17.80;99.90;;;;;;5060175;28;20234;-58
2021/07/07 02:10:39;;;;;;;6.23;5.60;;;17.80;99.90;;;;;;5060506;28;20177;-59
2021/07/07 02:13:11;;;;;;;5.90;5.40;;;17.80;99.90;;;;;;5064283;28;20193;-62
2021/07/07 02:15:37;;;;;;;9.73;7.57;;;17.80;99.90;;;;;;5064084;28;20482;-61
2021/07/07 02:18:05;;;;;;;7.35;5.22;;;17.70;99.90;;;;;;5063877;28;20250;-61
2021/07/07 02:20:33;;;;;;;5.18;4.13;;;17.70;99.90;;;;;;5064285;28;20554;-61
2021/07/07 02:23:02;;;;;;;6.43;5.82;;;17.60;99.90;;;;;;5065664;28;20198;-60
2021/07/07 02:25:30;;;;;;;5.28;4.88;;;17.50;99.90;;;;;;5067462;28;20184;-60
2021/07/07 02:27:57;;;;;;;5.95;5.38;;;17.40;99.90;;;;;;5057809;28;20176;-60
2021/07/07 02:30:26;;;;;;;5.88;5.28;;;17.40;99.90;;;;;;5066397;28;20547;-60
2021/07/07 02:32:53;;;;;;;5.78;4.43;;;17.40;99.90;;;;;;5067072;28;20184;-64
2021/07/07 02:35:22;;;;;;;4.88;4.38;;;17.50;99.90;;;;;;5069027;28;20246;-62
2021/07/07 02:37:49;;;;;;;4.47;4.07;;;17.60;99.90;;;;;;5061914;28;20196;-62
2021/07/07 02:40:16;;;;;;;6.25;3.92;;;17.40;99.90;;;;;;5056245;28;20193;-60
2021/07/07 02:42:42;;;;;;;4.30;3.90;;;17.40;99.90;;;;;;5065103;28;20251;-60
2021/07/07 02:45:11;;;;;;;5.13;4.60;;;17.40;99.90;;;;;;5069339;28;20276;-61
2021/07/07 02:47:38;;;;;;;5.13;4.38;;;17.50;99.90;;;;;;5066446;28;20180;-59
2021/07/07 02:50:05;;;;;;;5.13;4.63;;;17.60;99.90;;;;;;5058230;28;20282;-60
2021/07/07 02:52:31;;;;;;;5.30;4.80;;;17.60;99.90;;;;;;5065717;28;20198;-60
2021/07/07 02:54:56;;;;;;;5.30;4.90;;;17.70;99.90;;;;;;5066647;28;20591;-59
2021/07/07 02:57:22;;;;;;;5.50;5.00;;;17.60;99.90;;;;;;5066111;28;20204;-60
2021/07/07 02:59:48;;;;;;;5.80;5.30;;;17.70;99.90;;;;;;5062950;28;20204;-60
2021/07/07 03:02:13;;;;;;;6.70;6.00;;;17.80;99.90;;;;;;5066482;28;20638;-61
2021/07/07 03:04:39;;;;;;;6.90;6.20;;;17.80;99.90;;;;;;5067245;28;20184;-62
2021/07/07 03:07:05;;;;;;;6.20;5.60;;;17.90;99.90;;;;;;5066872;28;20193;-61
2021/07/07 03:09:31;;;;;;;6.00;5.50;;;17.90;99.90;;;;;;5064096;28;20207;-60
2021/07/07 03:11:56;;;;;;;6.37;5.77;;;17.90;99.90;;;;;;5066036;28;20189;-60
2021/07/07 03:14:22;;;;;;;6.03;5.53;;;18.00;99.90;;;;;;5062746;28;20264;-60
2021/07/07 03:16:48;;;;;;;5.80;5.30;;;17.80;99.90;;;;;;5065684;28;20799;-62
2021/07/07 03:19:14;;;;;;;5.73;4.90;;;17.70;99.90;;;;;;5064176;28;20283;-63
2021/07/07 03:21:39;;;;;;;5.67;5.17;;;17.60;99.90;;;;;;5062155;28;20181;-63
2021/07/07 03:24:05;;;;;;;5.23;4.60;;;17.60;99.90;;;;;;5063386;28;20522;-60
2021/07/07 03:26:31;;;;;;;4.38;3.97;;;17.60;99.90;;;;;;5057339;28;20279;-61
2021/07/07 03:28:57;;;;;;;4.57;4.20;;;17.50;99.90;;;;;;5063775;28;20308;-60
2021/07/07 03:31:22;;;;;;;5.10;4.70;;;17.60;99.90;;;;;;5056501;28;20188;-60
2021/07/07 03:33:48;;;;;;;4.90;4.50;;;17.60;99.90;;;;;;5058319;28;20284;-62
2021/07/07 03:36:14;;;;;;;4.97;4.50;;;17.60;99.90;;;;;;5063574;28;20208;-61
2021/07/07 03:38:39;;;;;;;5.20;4.80;;;17.70;99.90;;;;;;5058438;28;20217;-64
2021/07/07 03:41:05;;;;;;;4.20;3.63;;;17.60;99.90;;;;;;5066908;28;20671;-61
2021/07/07 03:43:30;;;;;;;4.27;3.87;;;17.70;99.90;;;;;;5059076;28;20265;-61
2021/07/07 03:45:56;;;;;;;4.27;3.97;;;17.70;99.90;;;;;;5057855;28;20201;-64
2021/07/07 03:48:21;;;;;;;4.10;3.70;;;17.70;99.90;;;;;;5053540;28;20745;-62
2021/07/07 03:50:47;;;;;;;4.00;3.70;;;17.70;99.90;;;;;;5056793;28;20273;-61
2021/07/07 03:53:13;;;;;;;2.90;2.70;;;17.70;99.90;;;;;;5065636;28;20250;-61
2021/07/07 03:55:39;;;;;;;3.13;2.83;;;17.70;99.90;;;;;;5063794;28;20247;-64
2021/07/07 03:58:05;;;;;;;3.57;3.27;;;17.70;99.90;;;;;;5059374;28;20196;-61
2021/07/07 04:00:32;;;;;;;3.47;3.17;;;17.80;99.90;;;;;;5065320;28;20236;-61
2021/07/07 04:02:58;;;;;;;3.20;3.00;;;17.70;99.90;;;;;;5062684;28;20270;-61
2021/07/07 04:05:24;;;;;;;4.07;3.60;;;17.70;99.90;;;;;;5061170;28;20644;-60
2021/07/07 04:07:50;;;;;;;5.00;4.50;;;17.70;99.90;;;;;;5062536;28;20185;-59
2021/07/07 04:10:17;;;;;;;4.63;4.23;;;17.90;99.90;;;;;;5064123;28;20207;-60
2021/07/07 04:12:44;;;;;;;4.65;4.25;;;17.80;99.90;;;;;;5060182;28;20505;-59
2021/07/07 04:15:13;;;;;;;4.38;3.97;;;17.80;99.90;;;;;;5057913;28;20236;-59
2021/07/07 04:17:39;;;;;;;4.90;4.45;;;17.80;99.90;;;;;;5058386;28;20196;-59
2021/07/07 04:20:08;;;;;;;5.38;4.88;;;17.90;99.90;;;;;;5058247;28;20201;-60
2021/07/07 04:22:34;;;;;;;5.63;5.15;;;17.80;99.90;;;;;;5056351;28;22378;-60
2021/07/07 04:25:00;;;;;;;5.70;5.20;;;17.70;99.90;;;;;;5055662;28;20267;-60
2021/07/07 04:27:26;;;;;;;5.00;3.72;;;17.80;99.90;;;;;;5064503;28;20218;-59
2021/07/07 04:29:52;;;;;;;4.50;4.20;;;17.80;99.90;;;;;;5062025;28;20201;-59
2021/07/07 04:32:18;;;;;;;4.60;3.53;;;17.90;99.90;;;;;;5058708;28;20913;-59
2021/07/07 04:34:44;;;;;;;3.70;3.40;;;17.90;99.90;;;;;;5056644;28;20742;-59
2021/07/07 04:37:10;;;;;;;3.83;3.53;;;17.90;99.90;;;;;;5056569;28;20613;-59
2021/07/07 04:39:36;;;;;;;3.80;3.45;;;17.90;99.90;;;;;;5057009;28;20678;-60
2021/07/07 04:42:02;;;;;;;3.80;3.37;;;17.80;99.90;;;;;;5054424;28;20226;-60
2021/07/07 04:44:27;;;;;;;3.57;3.27;;;17.80;99.90;;;;;;5057186;28;20265;-60
2021/07/07 04:46:53;;;;;;;4.00;3.10;;;17.80;99.90;;;;;;5065957;28;20189;-60
2021/07/07 04:49:19;;;;;;;3.87;3.40;;;17.70;99.90;;;;;;5056646;28;20206;-60
2021/07/07 04:51:44;;;;;;;3.73;3.33;;;17.70;99.90;;;;;;5055501;28;20719;-60
2021/07/07 04:54:10;;;;;;;3.83;3.53;;;17.70;99.90;;;;;;5054121;28;20217;-61
2021/07/07 04:56:36;;;;;;;4.20;3.67;;;17.90;99.90;;;;;;5060334;28;20201;-60
2021/07/07 04:59:01;;;;;;;4.35;3.95;;;17.80;99.90;;;;;;5059615;28;20607;-60
2021/07/07 05:01:30;;;;;;;4.13;3.70;;;17.80;99.90;;;;;;5055521;28;20182;-60
2021/07/07 05:03:56;;;;;;;5.75;4.55;;;17.70;99.90;;;;;;5062798;28;20173;-60
2021/07/07 05:06:21;;;;;;;5.73;4.63;;;17.50;99.90;;;;;;5061585;28;20201;-60
2021/07/07 05:08:47;;;;;;;5.13;4.63;;;17.60;99.90;;;;;;5061889;28;20204;-59
2021/07/07 05:11:13;;;;;;;3.90;3.50;;;17.50;99.90;;;;;;5060538;28;20185;-60
2021/07/07 05:13:38;;;;;;;3.93;3.10;;;17.70;99.90;;;;;;5059588;28;20189;-60
2021/07/07 05:16:04;;;;;;;3.00;2.70;;;17.50;99.90;;;;;;5055697;28;20575;-59
2021/07/07 05:18:31;;;;;;;3.90;2.70;;;17.60;99.90;;;;;;5054634;28;20272;-60
2021/07/07 05:20:57;;;;;;;2.70;2.50;;;17.50;99.90;;;;;;5059365;28;20438;-62
2021/07/07 05:23:22;;;;;;;3.07;2.87;;;17.70;99.90;;;;;;5056904;28;20200;-62
2021/07/07 05:25:48;;;;;;;3.47;3.17;;;17.80;99.90;;;;;;5053313;28;20640;-60
2021/07/07 05:28:14;;;;;;;3.45;3.00;;;17.90;99.90;;;;;;5057323;28;20253;-62
2021/07/07 05:30:40;;;;;;;3.60;3.30;;;18.00;99.90;;;;;;5055730;28;20239;-61
2021/07/07 05:33:08;;;;;;;3.47;3.17;;;18.10;99.90;;;;;;5055583;28;20184;-60
2021/07/07 05:35:34;;;;;;;4.53;3.08;;;18.10;99.90;;;;;;5051672;28;20201;-60
2021/07/07 05:38:00;;;;;;;2.97;2.75;;;18.30;99.90;;;;;;5054378;28;20251;-60
2021/07/07 05:40:26;;;;;;;4.13;3.20;;;18.30;99.90;;;;;;5054895;28;20531;-61
2021/07/07 05:42:52;;;;;;;3.95;3.55;;;18.30;99.90;;;;;;5053465;28;20907;-61
2021/07/07 05:45:21;;;;;;;2.75;2.55;;;18.40;99.90;;;;;;5058879;28;20266;-60
2021/07/07 05:47:47;;;;;;;2.80;2.60;;;18.40;99.90;;;;;;5053342;28;20185;-60
2021/07/07 05:50:13;;;;;;;2.97;2.67;;;18.40;99.90;;;;;;5053285;28;20231;-60
2021/07/07 05:52:38;;;;;;;4.32;3.88;;;18.40;99.90;;;;;;5056757;28;20284;-60
2021/07/07 05:55:05;;;;;;;2.63;2.40;;;18.40;99.90;;;;;;5057427;28;20669;-59
2021/07/07 05:57:39;;;;;;;3.20;2.15;;;18.40;99.90;;;;;;5058476;28;20225;-60
2021/07/07 06:00:09;;;;;;;2.50;2.30;;;18.10;99.90;;;;;;5054890;28;20207;-61
2021/07/07 06:02:35;;;;;;;2.80;2.03;;;18.20;99.90;;;;;;5063348;28;20253;-57
2021/07/07 06:05:01;;;;;;;2.53;2.23;;;18.30;99.90;;;;;;5064080;28;20635;-57
2021/07/07 06:07:26;;;;;;;2.37;2.07;;;18.30;99.90;;;;;;5063713;28;20438;-57
2021/07/07 06:09:52;;;;;;;2.03;1.93;;;18.30;99.90;;;;;;5056884;28;20463;-57
2021/07/07 06:12:18;;;;;;;2.23;1.93;;;18.30;99.90;;;;;;5053601;28;20196;-57
2021/07/07 06:14:43;;;;;;;2.27;1.90;;;18.30;99.90;;;;;;5067632;28;20708;-56
2021/07/07 06:17:09;;;;;;;2.60;2.40;;;18.30;99.90;;;;;;5060887;28;20227;-56
2021/07/07 06:19:34;;;;;;;2.00;1.80;;;18.40;99.90;;;;;;5063128;28;21938;-60
2021/07/07 06:22:01;;;;;;;2.10;1.70;;;18.30;99.90;;;;;;5059460;28;20180;-57
2021/07/07 06:24:28;;;;;;;1.80;1.70;;;18.30;99.90;;;;;;5054845;28;20270;-58
2021/07/07 06:26:54;;;;;;;2.33;1.77;;;18.20;99.90;;;;;;5049854;28;20277;-59
2021/07/07 06:29:20;;;;;;;1.57;1.47;;;18.10;99.90;;;;;;5054875;28;20346;-58
2021/07/07 06:31:45;;;;;;;1.93;1.43;;;18.20;99.90;;;;;;5053219;28;20272;-60
2021/07/07 06:34:11;;;;;;;1.70;1.60;;;18.20;99.90;;;;;;5062370;28;20448;-58
2021/07/07 06:36:38;;;;;;;2.43;1.50;;;18.30;99.90;;;;;;5052711;28;20181;-58
2021/07/07 06:39:04;;;;;;;2.70;2.15;;;18.50;99.90;;;;;;5059567;28;20473;-59
2021/07/07 06:41:32;;;;;;;1.70;1.60;;;18.20;99.90;;;;;;5059227;28;20185;-59
2021/07/07 06:43:58;;;;;;;2.15;2.03;;;18.30;99.90;;;;;;5064879;28;20184;-61
2021/07/07 06:46:24;;;;;;;2.15;1.95;;;18.40;99.90;;;;;;5056350;28;20192;-60
2021/07/07 06:48:49;;;;;;;2.50;1.57;;;18.50;99.90;;;;;;5057871;28;20211;-60
2021/07/07 06:51:15;;;;;;;2.20;2.00;;;18.50;99.90;;;;;;5054997;28;20233;-59
2021/07/07 06:53:41;;;;;;;3.60;2.00;;;18.50;99.90;;;;;;5051985;28;20299;-59
2021/07/07 06:56:06;;;;;;;2.00;1.50;;;18.40;99.90;;;;;;5058230;28;20579;-59
2021/07/07 06:58:32;;;;;;;1.40;1.30;;;18.40;99.90;;;;;;5052331;28;20311;-59
2021/07/07 07:00:58;;;;;;;4.80;1.57;;;18.40;99.90;;;;;;5054428;28;20184;-59
2021/07/07 07:03:23;;;;;;;2.17;1.50;;;18.40;99.90;;;;;;5058650;28;20660;-58
2021/07/07 07:05:49;;;;;;;3.00;2.43;;;18.30;99.90;;;;;;5060707;28;20189;-58
2021/07/07 07:08:17;;;;;;;2.27;2.07;;;18.10;99.90;;;;;;5054934;28;20227;-57
2021/07/07 07:10:43;;;;;;;2.08;1.70;;;18.00;99.90;;;;;;5050809;28;20685;-57
2021/07/07 07:13:08;;;;;;;3.00;2.00;;;18.00;99.90;;;;;;5062776;28;20193;-58
2021/07/07 07:15:34;;;;;;;3.23;1.57;;;18.10;99.90;;;;;;5060980;28;20462;-58
2021/07/07 07:18:00;;;;;;;2.40;1.30;;;18.00;99.90;;;;;;5064215;28;20199;-57
2021/07/07 07:20:29;;;;;;;4.20;1.80;;;17.90;99.90;;;;;;5053699;28;20166;-57
2021/07/07 07:22:56;;;;;;;3.38;1.80;;;17.80;99.90;;;;;;5055290;28;20204;-58
2021/07/07 07:25:22;;;;;;;2.35;1.65;;;17.80;99.90;;;;;;5054842;28;20176;-58
2021/07/07 07:27:47;;;;;;;1.70;1.60;;;18.00;99.90;;;;;;5062637;28;20196;-59
2021/07/07 07:30:13;;;;;;;2.77;2.50;;;18.10;99.90;;;;;;5053560;28;20207;-57
2021/07/07 07:32:39;;;;;;;3.03;1.60;;;18.20;99.90;;;;;;5060514;28;20607;-58
2021/07/07 07:35:05;;;;;;;3.20;1.70;;;18.20;99.90;;;;;;5062528;28;20198;-60
2021/07/07 07:37:47;;;;;;;2.97;1.70;;;18.20;99.90;;;;;;5062044;28;20218;-59
2021/07/07 07:40:14;;;;;;;2.70;2.30;;;18.50;99.90;;;;;;5058538;28;20224;-57
2021/07/07 07:42:43;;;;;;;3.72;1.70;;;18.70;99.90;;;;;;5056967;28;20227;-58
2021/07/07 07:45:12;;;;;;;2.35;1.63;;;18.70;99.90;;;;;;5052747;28;20204;-57
2021/07/07 07:47:41;;;;;;;2.90;1.70;;;18.80;99.90;;;;;;5050747;28;20196;-57
2021/07/07 07:50:07;;;;;;;3.00;1.90;;;18.80;99.90;;;;;;5065958;28;20684;-57
2021/07/07 07:52:33;;;;;;;2.67;2.45;;;18.90;99.90;;;;;;5055590;28;20200;-57
2021/07/07 07:55:02;;;;;;;2.57;2.37;;;18.90;99.90;;;;;;5060964;28;20252;-58
2021/07/07 07:57:27;;;;;;;2.60;2.40;;;18.80;99.90;;;;;;5058161;28;20193;-56
2021/07/07 07:59:53;;;;;;;3.13;2.20;;;18.80;99.90;;;;;;5055493;28;20216;-57
2021/07/07 08:02:19;;;;;;;2.90;1.87;;;18.80;99.90;;;;;;5052493;28;20182;-58
2021/07/07 08:04:44;;;;;;;6.40;1.80;;;18.90;99.90;;;;;;5062223;28;20181;-59
2021/07/07 08:07:10;;;;;;;2.00;1.90;;;19.00;99.90;;;;;;5062505;28;20448;-58
2021/07/07 08:09:36;;;;;;;4.03;2.03;;;19.10;99.90;;;;;;5061742;28;20254;-56
2021/07/07 08:12:01;;;;;;;1.80;1.70;;;19.30;99.90;;;;;;5062259;28;20196;-57
2021/07/07 08:14:27;;;;;;;3.73;2.00;;;19.30;99.90;;;;;;5050514;28;20724;-56
2021/07/07 08:16:53;;;;;;;1.70;1.60;;;19.40;99.90;;;;;;5052197;28;20188;-57
2021/07/07 08:19:18;;;;;;;2.73;2.10;;;19.30;99.90;;;;;;5053573;28;20675;-58
2021/07/07 08:21:44;;;;;;;3.17;2.50;;;19.20;99.90;;;;;;5050724;28;20178;-55
2021/07/07 08:24:09;;;;;;;2.90;2.50;;;19.20;99.90;;;;;;5058964;28;20688;-56
2021/07/07 08:26:35;;;;;;;2.80;2.13;;;19.20;99.90;;;;;;5052920;28;20710;-57
2021/07/07 08:29:01;;;;;;;2.57;2.33;;;19.10;99.90;;;;;;5059781;28;20303;-58
2021/07/07 08:31:26;;;;;;;2.73;2.20;;;19.10;99.90;;;;;;5061079;28;20188;-57
2021/07/07 08:33:55;;;;;;;2.90;2.50;;;19.30;99.90;;;;;;5062556;28;20542;-58
2021/07/07 08:36:23;;;;;;;2.30;1.80;;;19.40;99.90;;;;;;5062187;28;20191;-58
2021/07/07 08:38:50;;;;;;;2.70;2.47;;;19.40;99.90;;;;;;5054410;28;20304;-57
2021/07/07 08:41:16;;;;;;;3.28;2.00;;;19.30;99.90;;;;;;5059635;28;20185;-58
2021/07/07 08:43:43;;;;;;;2.73;2.03;;;19.30;99.90;;;;;;5054284;28;20212;-57
2021/07/07 08:46:09;;;;;;;2.20;1.45;;;19.30;99.90;;;;;;5051097;28;20431;-57
2021/07/07 08:48:35;;;;;;;2.53;1.70;;;19.40;99.90;;;;;;5060718;28;20304;-57
2021/07/07 08:51:03;;;;;;;2.37;1.80;;;19.50;99.90;;;;;;5061512;28;20272;-58
2021/07/07 08:53:30;;;;;;;2.53;2.30;;;19.50;99.90;;;;;;5058523;28;20412;-58
2021/07/07 08:55:57;;;;;;;3.33;1.60;;;19.60;99.90;;;;;;5062210;28;20189;-57
2021/07/07 08:58:23;;;;;;;2.22;1.70;;;19.40;99.90;;;;;;5060726;28;20219;-56
2021/07/07 09:00:50;;;;;;;2.50;2.20;;;19.20;99.90;;;;;;5060149;28;20178;-56
2021/07/07 09:03:18;;;;;;;2.80;2.00;;;19.30;99.90;;;;;;5058955;28;20185;-57
2021/07/07 09:05:58;;;;;;;1.65;1.30;;;19.40;99.90;;;;;;5066489;28;20178;-57
2021/07/07 09:08:36;;;;;;;2.00;1.42;;;19.80;99.90;;;;;;5065121;28;20204;-57
2021/07/07 09:11:28;;;;;;;1.90;1.30;;;20.50;99.90;;;;;;5064843;28;20573;-56
2021/07/07 09:14:12;;;;;;;1.52;1.10;;;21.00;99.90;;;;;;5064987;28;20606;-57
2021/07/07 09:16:50;;;;;;;1.92;1.25;;;21.20;99.90;;;;;;5065983;28;20221;-57
2021/07/07 09:19:23;;;;;;;1.50;1.35;;;21.20;99.90;;;;;;5058100;28;20209;-57
2021/07/07 09:21:54;;;;;;;1.38;1.20;;;21.40;99.90;;;;;;5061753;28;20578;-58
2021/07/07 09:24:24;;;;;;;2.03;1.52;;;21.60;99.90;;;;;;5069251;28;20173;-57
2021/07/07 09:27:14;;;;;;;3.00;1.25;;;21.80;99.90;;;;;;5067144;28;20582;-56
2021/07/07 09:29:43;;;;;;;1.55;1.35;;;21.80;99.90;;;;;;5054788;28;20535;-57
2021/07/07 09:32:15;;;;;;;3.70;1.63;;;21.70;99.90;;;;;;5058798;28;20178;-58
2021/07/07 09:34:41;;;;;;;2.10;1.63;;;21.20;99.90;;;;;;5061152;28;20658;-57
2021/07/07 09:37:09;;;;;;;3.55;1.80;;;21.00;99.90;;;;;;5059711;28;20669;-58
2021/07/07 09:39:34;;;;;;;2.75;1.50;;;20.70;99.90;;;;;;5056522;28;20268;-57
2021/07/07 09:42:00;;;;;;;2.80;1.50;;;20.60;99.90;;;;;;5055135;28;20216;-58
2021/07/07 09:44:34;;;;;;;2.80;1.53;;;20.80;99.90;;;;;;5055178;28;20201;-58
2021/07/07 09:47:04;;;;;;;1.73;1.30;;;20.70;99.90;;;;;;5051159;28;20181;-58
2021/07/07 09:49:32;;;;;;;2.78;2.10;;;20.60;99.90;;;;;;5064698;28;20200;-56
2021/07/07 09:51:59;;;;;;;2.45;1.70;;;20.50;99.90;;;;;;5059476;28;20660;-58
2021/07/07 09:54:25;;;;;;;1.40;1.30;;;20.50;99.90;;;;;;5060086;28;20245;-57
2021/07/07 09:56:51;;;;;;;2.20;1.37;;;20.60;99.90;;;;;;5059758;28;20647;-59
2021/07/07 09:59:17;;;;;;;2.30;1.40;;;20.60;99.90;;;;;;5062887;28;20484;-57
2021/07/07 10:01:46;;;;;;;2.07;1.77;;;20.60;99.90;;;;;;5052897;28;20679;-59
2021/07/07 10:04:16;;;;;;;13.68;11.02;;;20.40;99.90;;;;;;5061072;28;20180;-58
2021/07/07 10:06:43;;;;;;;1.95;1.73;;;20.30;99.90;;;;;;5059811;28;20216;-58
2021/07/07 10:09:09;;;;;;;2.17;1.60;;;20.20;99.90;;;;;;5060390;28;20235;-59
2021/07/07 10:11:37;;;;;;;2.13;1.83;;;20.40;99.90;;;;;;5058789;28;20181;-58
2021/07/07 10:14:03;;;;;;;4.03;1.58;;;20.40;99.90;;;;;;5062265;28;20673;-58
2021/07/07 10:16:29;;;;;;;2.70;1.53;;;20.50;99.90;;;;;;5062707;28;20318;-58
2021/07/07 10:18:55;;;;;;;2.45;1.77;;;20.50;99.90;;;;;;5065718;28;20528;-58
2021/07/07 10:21:24;;;;;;;3.20;1.90;;;20.60;99.90;;;;;;5057387;28;20173;-58
2021/07/07 10:23:51;;;;;;;1.65;1.55;;;20.80;99.90;;;;;;5063867;28;20211;-57
2021/07/07 10:26:18;;;;;;;3.83;1.60;;;21.00;99.90;;;;;;5065359;28;20488;-58
2021/07/07 10:28:45;;;;;;;2.95;1.60;;;20.90;99.90;;;;;;5055782;28;20209;-58
2021/07/07 10:31:10;;;;;;;2.15;1.95;;;21.20;99.90;;;;;;5059616;28;20637;-58
2021/07/07 10:33:38;;;;;;;1.67;1.57;;;21.30;99.90;;;;;;5066380;28;20265;-57
2021/07/07 10:36:17;;;;;;;2.78;1.88;;;21.30;99.90;;;;;;5060037;28;20188;-59
2021/07/07 10:39:05;;;;;;;2.55;1.80;;;21.30;99.90;;;;;;5063282;28;20220;-58
2021/07/07 10:44:35;;;;;;;21.13;14.18;;;21.40;99.90;;;;;;5065578;28;20177;-59
2021/07/07 10:47:16;;;;;;;2.17;1.98;;;21.90;99.90;;;;;;5048757;28;20272;-59
2021/07/07 10:49:52;;;;;;;2.95;2.42;;;22.10;99.90;;;;;;5063336;28;20197;-58
2021/07/07 10:52:43;;;;;;;2.53;1.95;;;22.30;99.90;;;;;;5062799;28;20191;-59
2021/07/07 10:55:12;;;;;;;4.22;2.35;;;22.40;99.90;;;;;;5069800;28;20618;-59
2021/07/07 10:57:39;;;;;;;6.13;2.00;;;22.50;99.90;;;;;;5055122;28;20879;-58
2021/07/07 11:00:30;;;;;;;2.30;1.80;;;22.30;99.90;;;;;;5061595;28;20455;-59
2021/07/07 11:03:31;;;;;;;3.00;1.70;;;22.00;99.90;;;;;;5055670;28;20234;-57
2021/07/07 11:06:20;;;;;;;2.20;1.90;;;22.20;99.90;;;;;;5051083;28;20263;-59
2021/07/07 11:08:47;;;;;;;2.60;1.90;;;22.40;99.90;;;;;;5061439;28;20216;-58
2021/07/07 11:11:24;;;;;;;1.70;1.60;;;22.10;99.90;;;;;;5060260;28;20219;-58
2021/07/07 11:13:51;;;;;;;4.50;3.77;;;22.30;99.90;;;;;;5052531;28;20200;-58
2021/07/07 11:16:23;;;;;;;2.90;2.70;;;22.60;99.90;;;;;;5053899;28;20462;-58
2021/07/07 11:18:52;;;;;;;2.40;2.20;;;22.70;99.90;;;;;;5058171;28;20505;-58
2021/07/07 11:21:19;;;;;;;2.13;1.90;;;22.90;99.90;;;;;;5060909;28;20460;-58
2021/07/07 11:23:46;;;;;;;1.88;1.73;;;22.80;99.90;;;;;;5052960;28;20177;-58
2021/07/07 11:26:13;;;;;;;3.27;1.27;;;23.00;99.90;;;;;;5062462;28;20189;-57
2021/07/07 11:28:42;;;;;;;1.80;1.53;;;23.10;99.90;;;;;;5061175;28;20459;-57
2021/07/07 11:31:08;;;;;;;2.10;1.90;;;23.10;99.90;;;;;;5065548;28;20845;-58
2021/07/07 11:33:33;;;;;;;3.77;3.37;;;23.20;99.90;;;;;;5051025;28;20440;-58
2021/07/07 11:35:59;;;;;;;2.50;2.30;;;23.20;99.90;;;;;;5058819;28;20230;-59
2021/07/07 11:38:27;;;;;;;1.73;1.63;;;23.30;99.90;;;;;;5060848;28;20209;-59
2021/07/07 11:40:55;;;;;;;1.57;1.47;;;23.40;99.90;;;;;;5059679;28;20181;-58
2021/07/07 11:43:31;;;;;;;1.60;1.50;;;23.30;99.90;;;;;;5063791;28;20445;-59
2021/07/07 11:46:02;;;;;;;1.70;1.60;;;23.20;99.90;;;;;;5058914;28;20486;-60
2021/07/07 11:51:05;;;;;;;3.65;1.70;;;23.20;99.90;;;;;;5054190;28;20448;-58
2021/07/07 11:53:39;;;;;;;1.97;1.80;;;23.40;99.90;;;;;;5052497;28;20647;-60
2021/07/07 11:56:08;;;;;;;4.50;2.17;;;23.50;99.90;;;;;;5060489;28;20530;-61
2021/07/07 11:58:43;;;;;;;1.20;1.10;;;23.60;99.90;;;;;;5057972;28;20472;-60
2021/07/07 12:01:26;;;;;;;2.50;2.30;;;23.70;99.90;;;;;;5055013;28;20437;-58
2021/07/07 12:03:56;;;;;;;1.40;1.30;;;23.70;99.90;;;;;;5056743;28;20442;-58
2021/07/07 12:06:48;;;;;;;1.87;1.70;;;23.80;99.90;;;;;;5058490;28;20440;-59
2021/07/07 12:09:19;;;;;;;1.70;1.60;;;23.70;99.90;;;;;;5053305;28;20472;-58
2021/07/07 12:11:56;;;;;;;1.43;1.30;;;23.90;99.50;;;;;;5055005;28;20580;-58
2021/07/07 12:14:24;;;;;;;1.60;1.50;;;24.20;99.50;;;;;;5063035;28;20992;-58
2021/07/07 12:16:50;;;;;;;1.60;1.50;;;24.40;99.80;;;;;;5062342;28;21197;-60
2021/07/07 12:19:16;;;;;;;1.33;1.20;;;24.40;99.40;;;;;;5054881;28;20475;-58
2021/07/07 12:21:49;;;;;;;1.20;1.10;;;24.10;99.80;;;;;;5050739;28;20447;-59
2021/07/07 12:24:23;;;;;;;1.50;1.17;;;24.20;99.70;;;;;;5054477;28;20446;-60
2021/07/07 12:26:55;;;;;;;2.23;1.80;;;24.30;99.60;;;;;;5051467;28;20493;-59
2021/07/07 12:29:41;;;;;;;1.50;1.40;;;24.00;99.80;;;;;;5049688;28;20685;-60
2021/07/07 12:32:27;;;;;;;1.23;1.13;;;23.90;99.90;;;;;;5049733;28;20956;-58
2021/07/07 12:34:56;;;;;;;3.23;1.20;;;24.20;99.80;;;;;;5053963;28;20550;-61
2021/07/07 12:37:23;;;;;;;1.50;1.33;;;24.20;99.10;;;;;;5053888;28;20459;-59
2021/07/07 12:39:52;;;;;;;2.93;2.73;;;23.50;99.90;;;;;;5052927;28;20463;-60
2021/07/07 12:42:24;;;;;;;4.33;4.00;;;23.60;99.90;;;;;;5057227;28;20438;-59
2021/07/07 12:44:50;;;;;;;2.07;1.40;;;23.50;99.90;;;;;;5056453;28;20500;-58
2021/07/07 12:47:18;;;;;;;1.60;1.50;;;23.30;99.90;;;;;;5058597;28;20435;-56
2021/07/07 12:49:48;;;;;;;1.63;1.30;;;23.40;99.90;;;;;;5062367;28;20209;-56
2021/07/07 12:52:14;;;;;;;1.40;1.30;;;23.50;99.90;;;;;;5055969;28;20464;-56
2021/07/07 12:54:40;;;;;;;1.20;1.10;;;23.80;99.90;;;;;;5059172;28;20613;-58